Time;durP1;ratioP1;P1;durP2;ratioP2;P2;SDS_P1;SDS_P2;PMS_P1;PMS_P2;Temp;Humidity;BMP_temperature;BMP_pressure;BME280_temperature;BME280_humidity;BME280_pressure;Samples;Min_cycle;Max_cycle;Signal;HPM_P1;HPM_P2
2022/07/18 00:02:45;;;;;;;2.73;1.23;;;;;;;12.08;68.98;98622.81;6133046;28;20328;-83
2022/07/18 00:05:47;;;;;;;2.27;1.00;;;;;;;12.00;69.13;98614.59;6137851;28;20229;-83
2022/07/18 00:08:49;;;;;;;1.13;0.93;;;;;;;12.02;69.31;98618.00;6131830;28;20331;-83
2022/07/18 00:11:52;;;;;;;1.40;0.90;;;;;;;12.02;68.73;98608.25;6157704;28;20717;-83
2022/07/18 00:14:54;;;;;;;0.70;0.70;;;;;;;12.03;68.95;98617.03;6158934;28;20241;-83
2022/07/18 00:17:56;;;;;;;2.00;0.80;;;;;;;12.04;68.74;98619.59;6158693;28;20373;-83
2022/07/18 00:20:58;;;;;;;1.00;0.77;;;;;;;12.00;68.73;98614.59;6158997;28;20340;-83
2022/07/18 00:24:01;;;;;;;2.83;1.00;;;;;;;11.88;69.04;98610.19;6160068;28;20713;-83
2022/07/18 00:27:06;;;;;;;1.13;0.87;;;;;;;11.69;69.55;98608.78;6160097;28;20240;-83
2022/07/18 00:30:10;;;;;;;1.53;1.00;;;;;;;11.61;69.98;98610.28;6152460;28;20672;-82
2022/07/18 00:33:12;;;;;;;1.87;1.00;;;;;;;11.66;69.54;98614.31;6166614;28;20703;-83
2022/07/18 00:36:14;;;;;;;1.73;1.10;;;;;;;11.73;69.15;98612.94;6150500;28;20682;-83
2022/07/18 00:39:16;;;;;;;1.47;0.93;;;;;;;11.72;68.74;98600.66;6164484;28;20259;-83
2022/07/18 00:42:20;;;;;;;1.20;0.90;;;;;;;11.65;69.57;98601.19;6169759;28;20222;-83
2022/07/18 00:45:22;;;;;;;2.67;1.00;;;;;;;11.58;69.94;98606.06;6161560;28;20719;-83
2022/07/18 00:48:24;;;;;;;0.97;0.80;;;;;;;11.53;70.29;98612.63;6159577;28;20235;-83
2022/07/18 00:51:26;;;;;;;2.17;1.10;;;;;;;11.48;70.05;98612.09;6142545;28;20235;-83
2022/07/18 00:54:31;;;;;;;1.43;0.80;;;;;;;11.45;70.02;98613.16;6158371;28;20371;-83
2022/07/18 00:57:33;;;;;;;3.93;1.07;;;;;;;11.43;70.25;98621.19;6150182;28;20732;-83
2022/07/18 01:03:56;;;;;;;2.30;1.00;;;;;;;11.37;70.48;98623.41;6157922;28;20307;-83
2022/07/18 01:06:58;;;;;;;1.17;0.90;;;;;;;11.36;70.53;98619.94;6157313;28;20396;-82
2022/07/18 01:10:00;;;;;;;2.27;1.20;;;;;;;11.32;69.91;98623.72;6141332;28;20308;-83
2022/07/18 01:13:02;;;;;;;2.03;0.80;;;;;;;11.28;70.16;98624.88;6158857;28;20841;-83
2022/07/18 01:16:05;;;;;;;1.13;0.70;;;;;;;11.19;69.92;98622.84;6156425;28;20403;-83
2022/07/18 01:19:09;;;;;;;1.20;0.90;;;;;;;11.14;70.84;98617.03;6157474;28;20228;-83
2022/07/18 01:22:13;;;;;;;1.20;0.90;;;;;;;11.07;71.18;98619.25;6156224;28;20224;-83
2022/07/18 01:25:16;;;;;;;2.17;0.90;;;;;;;10.93;71.25;98616.69;6157415;28;20644;-83
2022/07/18 01:28:19;;;;;;;1.63;1.00;;;;;;;10.85;71.49;98624.28;6141410;28;20233;-83
2022/07/18 01:31:21;;;;;;;0.80;0.70;;;;;;;10.83;71.35;98622.69;6167561;28;20315;-83
2022/07/18 01:34:23;;;;;;;2.90;1.23;;;;;;;10.76;71.88;98624.03;6141603;28;20260;-83
2022/07/18 01:37:25;;;;;;;2.50;1.10;;;;;;;10.69;72.41;98627.06;6141191;28;20290;-83
2022/07/18 01:40:28;;;;;;;2.13;1.00;;;;;;;10.61;72.69;98617.97;6156479;28;20857;-83
2022/07/18 01:43:30;;;;;;;1.90;1.00;;;;;;;10.59;72.36;98620.69;6159619;28;20313;-82
2022/07/18 01:46:32;;;;;;;1.40;0.80;;;;;;;10.61;72.01;98612.69;6140397;28;20239;-83
2022/07/18 01:49:36;;;;;;;2.50;1.17;;;;;;;10.61;72.71;98618.81;6141297;28;20224;-83
2022/07/18 01:52:39;;;;;;;2.83;0.97;;;;;;;10.62;72.53;98617.88;6155678;28;20328;-83
2022/07/18 01:55:41;;;;;;;1.10;1.00;;;;;;;10.61;72.30;98615.31;6156285;28;20766;-83
2022/07/18 01:58:43;;;;;;;1.37;0.90;;;;;;;10.60;72.35;98618.91;6158266;28;20848;-82
2022/07/18 02:01:45;;;;;;;1.57;0.93;;;;;;;10.54;72.69;98612.25;6158579;28;20317;-83
2022/07/18 02:04:59;;;;;;;0.83;0.80;;;;;;;10.51;72.61;98615.06;6140967;28;20237;-83
2022/07/18 02:08:02;;;;;;;1.57;1.20;;;;;;;10.55;72.26;98613.94;6156186;28;20738;-83
2022/07/18 02:11:04;;;;;;;3.00;1.00;;;;;;;10.56;71.91;98607.72;6157900;28;20374;-83
2022/07/18 02:14:06;;;;;;;1.60;0.90;;;;;;;10.51;72.18;98615.06;6133205;28;20245;-83
2022/07/18 02:17:08;;;;;;;2.50;1.20;;;;;;;10.43;72.79;98613.88;6140175;28;20653;-83
2022/07/18 02:20:12;;;;;;;1.70;1.20;;;;;;;10.42;73.44;98615.66;6147278;28;20236;-83
2022/07/18 02:23:14;;;;;;;2.27;0.90;;;;;;;10.35;73.10;98620.50;6156809;28;20740;-83
2022/07/18 02:26:17;;;;;;;2.77;1.20;;;;;;;10.35;73.16;98617.03;6157961;28;20369;-83
2022/07/18 02:29:19;;;;;;;2.10;1.10;;;;;;;10.30;73.32;98617.31;6141597;28;20236;-83
2022/07/18 02:32:23;;;;;;;3.10;1.13;;;;;;;10.20;74.10;98616.19;6180442;28;20254;-82
2022/07/18 02:35:25;;;;;;;1.97;1.10;;;;;;;10.18;73.87;98617.25;6157624;28;20245;-83
2022/07/18 02:38:28;;;;;;;5.77;1.30;;;;;;;10.19;74.20;98621.56;6155797;28;20230;-83
2022/07/18 02:41:30;;;;;;;3.00;1.40;;;;;;;10.19;73.93;98614.50;6141658;28;20230;-83
2022/07/18 02:44:32;;;;;;;2.37;1.03;;;;;;;10.13;74.87;98617.50;6156460;28;20227;-83
2022/07/18 02:47:34;;;;;;;1.40;1.10;;;;;;;10.05;75.32;98617.16;6148796;28;20585;-83
2022/07/18 02:50:36;;;;;;;4.10;1.53;;;;;;;10.03;74.72;98616.41;6132770;28;20241;-83
2022/07/18 02:53:38;;;;;;;1.90;1.07;;;;;;;10.05;74.86;98619.78;6153027;28;20820;-82
2022/07/18 02:56:40;;;;;;;1.53;0.90;;;;;;;10.03;74.60;98611.13;6155619;28;20240;-83
2022/07/18 02:59:42;;;;;;;1.73;1.10;;;;;;;10.02;74.86;98611.22;6157968;28;20226;-83
2022/07/18 03:02:45;;;;;;;1.60;1.13;;;;;;;10.02;75.08;98614.69;6156062;28;20675;-83
2022/07/18 03:05:47;;;;;;;3.93;1.23;;;;;;;10.00;74.96;98611.31;6155494;28;20253;-83
2022/07/18 03:08:49;;;;;;;3.87;1.40;;;;;;;10.00;75.29;98620.06;6139569;28;20277;-83
2022/07/18 03:11:51;;;;;;;4.73;1.10;;;;;;;9.98;75.40;98608.75;6155502;28;20340;-83
2022/07/18 03:14:53;;;;;;;1.83;0.93;;;;;;;10.00;75.26;98613.94;6146388;28;20321;-83
2022/07/18 03:17:55;;;;;;;2.27;1.10;;;;;;;10.01;75.62;98620.91;6138887;28;20308;-83
2022/07/18 03:20:57;;;;;;;1.10;1.10;;;;;;;9.99;75.41;98622.78;6139024;28;20238;-83
2022/07/18 03:23:59;;;;;;;1.63;0.83;;;;;;;9.95;75.87;98616.88;6155241;28;20242;-83
2022/07/18 03:27:01;;;;;;;1.07;0.97;;;;;;;9.94;75.42;98625.75;6155674;28;20324;-83
2022/07/18 03:30:03;;;;;;;2.10;0.93;;;;;;;9.94;75.62;98627.53;6162037;28;20302;-83
2022/07/18 03:33:05;;;;;;;1.17;1.07;;;;;;;9.93;75.18;98636.38;6152486;28;20601;-83
2022/07/18 03:36:08;;;;;;;3.07;1.23;;;;;;;9.94;75.34;98625.75;6124057;28;20214;-83
2022/07/18 03:39:11;;;;;;;1.73;1.20;;;;;;;9.94;75.75;98619.63;6142656;28;20249;-83
2022/07/18 03:42:13;;;;;;;2.37;1.17;;;;;;;9.91;75.99;98628.56;6146844;28;20607;-83
2022/07/18 03:45:15;;;;;;;1.60;1.27;;;;;;;9.92;75.87;98627.63;6141351;28;20253;-83
2022/07/18 03:48:17;;;;;;;2.00;1.20;;;;;;;10.02;75.44;98627.03;6160848;28;20226;-83
2022/07/18 03:51:19;;;;;;;2.90;1.30;;;;;;;10.05;75.66;98621.59;6161762;28;20210;-83
2022/07/18 03:54:22;;;;;;;1.33;1.00;;;;;;;10.06;75.35;98628.56;6163883;28;20392;-83
2022/07/18 03:57:24;;;;;;;1.37;0.97;;;;;;;10.08;75.10;98624.84;6153538;28;20231;-83
2022/07/18 04:00:26;;;;;;;2.00;1.20;;;;;;;10.15;74.86;98625.34;6170855;28;20308;-83
2022/07/18 04:03:28;;;;;;;1.67;0.90;;;;;;;10.27;75.05;98619.31;6161423;28;20309;-83
2022/07/18 04:06:30;;;;;;;1.70;1.07;;;;;;;10.31;74.85;98621.63;6162207;28;20749;-83
2022/07/18 04:09:33;;;;;;;1.13;1.00;;;;;;;10.35;74.91;98623.16;6161188;28;20250;-83
2022/07/18 04:12:45;;;;;;;0.97;0.80;;;;;;;10.41;73.82;98623.69;6158677;28;20316;-83
2022/07/18 04:15:47;;;;;;;1.37;0.90;;;;;;;10.48;73.79;98623.19;6160269;28;20647;-83
2022/07/18 04:18:49;;;;;;;2.33;0.93;;;;;;;10.54;73.89;98619.31;6160168;28;20226;-83
2022/07/18 04:21:51;;;;;;;1.30;1.00;;;;;;;10.54;73.75;98621.94;6158470;28;20242;-83
2022/07/18 04:24:53;;;;;;;1.40;0.77;;;;;;;10.54;73.63;98614.03;6158849;28;20699;-83
2022/07/18 04:27:56;;;;;;;1.90;0.80;;;;;;;10.62;73.72;98614.38;6158211;28;20590;-83
2022/07/18 04:30:58;;;;;;;2.23;0.80;;;;;;;10.65;73.12;98611.53;6160147;28;20252;-83
2022/07/18 04:34:00;;;;;;;1.60;0.97;;;;;;;10.71;73.63;98611.97;6150181;28;20733;-83
2022/07/18 04:37:02;;;;;;;2.53;0.90;;;;;;;10.70;73.49;98615.56;6140901;28;20241;-83
2022/07/18 04:40:06;;;;;;;1.77;1.00;;;;;;;10.76;73.60;98624.03;6158563;28;20234;-83
2022/07/18 04:43:08;;;;;;;1.87;0.80;;;;;;;10.81;72.97;98614.84;6174128;28;20270;-83
2022/07/18 04:46:10;;;;;;;2.03;1.00;;;;;;;10.79;73.24;98608.81;6158149;28;20324;-83
2022/07/18 04:49:12;;;;;;;4.43;0.80;;;;;;;10.83;73.28;98615.59;6158469;28;20233;-83
2022/07/18 04:52:14;;;;;;;0.83;0.70;;;;;;;10.84;73.78;98612.03;6142073;28;20270;-83
2022/07/18 04:55:19;;;;;;;1.93;0.90;;;;;;;10.86;73.64;98614.56;6141017;28;20814;-83
2022/07/18 04:58:21;;;;;;;1.10;0.80;;;;;;;10.90;73.45;98618.69;6150507;28;20240;-83
2022/07/18 05:01:23;;;;;;;3.17;1.00;;;;;;;10.94;73.64;98613.09;6150451;28;20726;-83
2022/07/18 05:04:25;;;;;;;0.90;0.90;;;;;;;10.93;73.84;98607.91;6155193;28;20238;-83
2022/07/18 05:07:27;;;;;;;1.77;0.87;;;;;;;11.01;74.00;98618.81;6157705;28;20241;-83
2022/07/18 05:10:29;;;;;;;1.37;0.90;;;;;;;11.08;73.87;98596.31;6157805;28;20260;-83
2022/07/18 05:13:31;;;;;;;0.93;0.77;;;;;;;11.14;74.12;98600.34;6158538;28;20719;-83
2022/07/18 05:16:33;;;;;;;1.37;0.90;;;;;;;11.24;74.01;98604.06;6156511;28;20844;-83
2022/07/18 05:19:36;;;;;;;2.53;1.17;;;;;;;11.35;74.11;98610.31;6173172;28;20245;-83
2022/07/18 05:22:38;;;;;;;1.30;0.80;;;;;;;11.48;73.95;98608.47;6142160;28;20305;-83
2022/07/18 05:25:41;;;;;;;3.77;0.80;;;;;;;11.59;74.25;98607.75;6158700;28;20223;-83
2022/07/18 05:28:43;;;;;;;0.80;0.63;;;;;;;11.71;74.44;98606.03;6157599;28;20380;-83
2022/07/18 05:31:45;;;;;;;2.00;0.80;;;;;;;11.86;74.00;98602.38;6170030;28;20250;-83
2022/07/18 05:34:47;;;;;;;2.07;0.90;;;;;;;11.99;74.08;98600.53;6156389;28;20240;-83
2022/07/18 05:37:50;;;;;;;2.60;0.90;;;;;;;12.19;73.63;98596.44;6156920;28;20240;-83
2022/07/18 05:40:52;;;;;;;1.50;0.90;;;;;;;12.39;73.35;98593.19;6141569;28;20705;-83
2022/07/18 05:43:54;;;;;;;2.53;1.00;;;;;;;12.53;73.11;98603.63;6133984;28;20236;-83
2022/07/18 05:46:56;;;;;;;3.17;1.00;;;;;;;12.72;72.38;98605.78;6122968;28;20297;-83
2022/07/18 05:49:58;;;;;;;0.73;0.73;;;;;;;12.93;72.68;98596.22;6157052;28;20226;-83
2022/07/18 05:53:00;;;;;;;1.80;0.77;;;;;;;13.12;72.45;98586.88;6155948;28;20230;-83
2022/07/18 05:56:03;;;;;;;2.20;0.90;;;;;;;13.22;71.76;98593.19;6155846;28;20237;-83
2022/07/18 05:59:05;;;;;;;1.30;0.80;;;;;;;13.34;71.78;98594.06;6156633;28;20249;-83
2022/07/18 06:02:25;;;;;;;1.30;0.90;;;;;;;13.44;72.16;98603.00;6140954;28;20240;-83
2022/07/18 06:05:27;;;;;;;1.77;0.90;;;;;;;13.53;71.16;98594.34;6155988;28;20234;-83
2022/07/18 06:08:30;;;;;;;1.93;0.80;;;;;;;13.57;71.32;98601.09;6156114;28;20642;-83
2022/07/18 06:11:32;;;;;;;1.03;0.83;;;;;;;13.68;71.06;98601.94;6156305;28;20229;-83
2022/07/18 06:14:34;;;;;;;0.70;0.60;;;;;;;13.83;70.43;98605.19;6156266;28;20238;-83
2022/07/18 06:17:36;;;;;;;0.57;0.57;;;;;;;13.88;70.41;98602.16;6155500;28;20257;-83
2022/07/18 06:20:38;;;;;;;2.57;0.73;;;;;;;13.99;69.86;98595.03;6156067;28;20706;-83
2022/07/18 06:23:40;;;;;;;1.20;1.00;;;;;;;14.09;69.91;98596.97;6157676;28;20748;-83
2022/07/18 06:26:42;;;;;;;1.60;0.80;;;;;;;14.18;69.61;98594.41;6156105;28;20225;-83
2022/07/18 06:29:44;;;;;;;1.67;0.90;;;;;;;14.20;69.64;98592.50;6161368;28;20304;-83
2022/07/18 06:32:46;;;;;;;0.90;0.73;;;;;;;14.37;69.26;98594.63;6158150;28;20296;-83
2022/07/18 06:35:49;;;;;;;2.20;1.10;;;;;;;14.60;68.16;98598.09;6156129;28;20654;-83
2022/07/18 06:38:51;;;;;;;2.23;1.10;;;;;;;14.82;67.63;98601.66;6155631;28;20320;-83
2022/07/18 06:41:53;;;;;;;1.03;0.77;;;;;;;15.11;66.90;98590.25;6155681;28;20603;-83
2022/07/18 06:44:55;;;;;;;1.60;0.80;;;;;;;15.42;66.84;98598.31;6157103;28;20383;-83
2022/07/18 06:47:57;;;;;;;2.40;0.77;;;;;;;15.81;65.22;98586.91;6155396;28;20317;-83
2022/07/18 06:51:01;;;;;;;1.13;0.63;;;;;;;16.16;64.64;98590.97;6157070;28;20285;-83
2022/07/18 06:54:03;;;;;;;2.30;0.80;;;;;;;16.45;64.18;98588.38;6155172;28;20230;-83
2022/07/18 06:57:09;;;;;;;1.63;1.00;;;;;;;16.70;63.66;98593.19;6156046;28;20545;-83
2022/07/18 07:00:14;;;;;;;2.07;0.90;;;;;;;17.07;62.41;98584.50;6147493;28;20218;-83
2022/07/18 07:03:16;;;;;;;0.90;0.73;;;;;;;17.62;60.58;98585.50;6165333;28;20225;-83
2022/07/18 07:06:18;;;;;;;1.10;0.83;;;;;;;18.13;59.45;98581.53;6139548;28;20431;-83
2022/07/18 07:09:20;;;;;;;1.60;0.80;;;;;;;18.35;58.94;98579.31;6139574;28;20330;-83
2022/07/18 07:12:22;;;;;;;2.27;1.00;;;;;;;18.48;58.70;98570.06;6147836;28;20332;-83
2022/07/18 07:15:24;;;;;;;1.93;1.10;;;;;;;18.85;57.54;98578.00;6138056;28;20602;-87
2022/07/18 07:18:26;;;;;;;4.53;1.20;;;;;;;19.20;56.68;98564.59;6155852;28;20237;-87
2022/07/18 07:21:29;;;;;;;2.60;0.90;;;;;;;19.62;55.50;98561.22;6159733;28;20234;-87
2022/07/18 07:24:31;;;;;;;2.53;1.00;;;;;;;20.19;53.55;98565.00;6159587;28;20225;-87
2022/07/18 07:27:33;;;;;;;4.70;1.10;;;;;;;20.75;50.92;98560.81;6146553;28;20226;-87
2022/07/18 07:30:35;;;;;;;2.17;1.10;;;;;;;21.26;49.16;98563.19;6177242;28;20260;-87
2022/07/18 07:33:37;;;;;;;3.10;1.40;;;;;;;21.77;46.21;98563.78;6172974;28;20366;-87
2022/07/18 07:36:39;;;;;;;2.83;1.03;;;;;;;22.23;43.09;98564.00;6146674;28;20293;-87
2022/07/18 07:39:41;;;;;;;2.63;1.10;;;;;;;22.56;43.71;98567.38;6150209;28;20233;-87
2022/07/18 07:42:44;;;;;;;9.37;1.10;;;;;;;22.94;39.85;98568.31;6170477;28;20328;-87
2022/07/18 07:45:48;;;;;;;2.53;1.20;;;;;;;23.27;38.69;98563.47;6170290;28;20238;-87
2022/07/18 07:48:50;;;;;;;2.43;1.00;;;;;;;23.69;37.87;98566.47;6160984;28;20648;-87
2022/07/18 07:51:52;;;;;;;2.03;0.90;;;;;;;24.13;37.38;98566.47;6161455;28;20229;-87
2022/07/18 07:54:54;;;;;;;2.93;1.07;;;;;;;24.45;37.80;98562.56;6159035;28;20234;-87
2022/07/18 07:57:57;;;;;;;2.77;1.00;;;;;;;24.75;37.38;98563.31;6159575;28;20727;-88
2022/07/18 08:00:59;;;;;;;1.03;0.70;;;;;;;24.94;35.96;98557.31;6158589;28;20328;-87
2022/07/18 08:04:01;;;;;;;2.80;0.93;;;;;;;25.36;35.26;98563.69;6143007;28;20246;-88
2022/07/18 08:07:03;;;;;;;2.60;1.00;;;;;;;25.56;33.53;98555.72;6175101;28;20365;-87
2022/07/18 08:10:05;;;;;;;2.70;0.90;;;;;;;25.81;32.79;98561.56;6158680;28;20834;-87
2022/07/18 08:13:07;;;;;;;1.93;0.90;;;;;;;26.08;32.55;98561.50;6158996;28;20233;-87
2022/07/18 08:16:09;;;;;;;3.00;1.02;;;;;;;26.47;31.81;98560.03;6142434;28;20332;-88
2022/07/18 08:19:11;;;;;;;1.73;0.87;;;;;;;26.70;32.28;98563.25;6173925;28;20249;-87
2022/07/18 08:22:13;;;;;;;1.63;0.80;;;;;;;26.83;32.01;98568.69;6143237;28;20230;-88
2022/07/18 08:25:15;;;;;;;2.47;1.20;;;;;;;27.00;30.26;98558.34;6157994;28;20293;-88
2022/07/18 08:28:18;;;;;;;2.35;0.80;;;;;;;27.10;30.82;98566.91;6157987;28;20256;-87
2022/07/18 08:31:20;;;;;;;1.23;0.80;;;;;;;27.53;30.81;98566.50;6172055;28;20713;-87
2022/07/18 08:34:31;;;;;;;3.00;1.00;;;;;;;27.95;31.04;98564.38;6159235;28;20309;-87
2022/07/18 08:37:33;;;;;;;4.88;1.23;;;;;;;27.82;29.26;98563.34;6158943;28;20388;-87
2022/07/18 08:40:37;;;;;;;3.22;1.08;;;;;;;27.11;31.73;98568.56;6158401;28;20249;-88
2022/07/18 08:43:40;;;;;;;3.25;1.17;;;;;;;27.32;30.94;98574.84;6150209;28;20257;-87
2022/07/18 08:46:51;;;;;;;3.65;1.20;;;;;;;27.39;30.53;98562.94;6157639;28;20242;-88
2022/07/18 08:49:54;;;;;;;4.10;1.30;;;;;;;27.19;30.54;98573.78;6133911;28;20238;-88
2022/07/18 08:52:56;;;;;;;4.53;1.15;;;;;;;27.45;29.89;98574.84;6141407;28;20311;-87
2022/07/18 08:55:58;;;;;;;1.58;0.90;;;;;;;27.41;28.23;98568.16;6141258;28;20292;-88
2022/07/18 08:59:04;;;;;;;2.17;0.90;;;;;;;27.90;29.25;98565.84;6158220;28;20720;-87
2022/07/18 09:02:15;;;;;;;1.67;1.10;;;;;;;28.53;29.92;98571.50;6157473;28;20614;-87
2022/07/18 09:05:19;;;;;;;1.80;0.85;;;;;;;28.65;28.75;98558.88;6142073;28;20623;-87
2022/07/18 09:08:38;;;;;;;1.95;1.00;;;;;;;28.86;27.70;98562.34;6156179;28;20245;-87
2022/07/18 09:11:55;;;;;;;4.60;1.38;;;;;;;29.09;24.97;98553.66;6157490;28;20234;-87
2022/07/18 09:15:05;;;;;;;3.20;1.00;;;;;;;29.40;25.43;98552.81;6133418;28;20265;-88
2022/07/18 09:18:07;;;;;;;3.33;1.42;;;;;;;29.52;25.65;98551.88;6138115;28;20342;-88
2022/07/18 09:21:35;;;;;;;2.13;1.20;;;;;;;29.39;24.29;98548.41;6173776;28;20229;-88
2022/07/18 09:25:01;;;;;;;2.13;0.85;;;;;;;29.00;24.80;98544.94;6141098;28;20258;-88
2022/07/18 09:28:09;;;;;;;3.80;1.20;;;;;;;29.34;24.36;98554.50;6141842;28;20733;-88
2022/07/18 09:31:21;;;;;;;4.45;1.33;;;;;;;29.41;23.36;98546.31;6143433;28;20237;-88
2022/07/18 09:34:41;;;;;;;1.23;0.90;;;;;;;29.28;22.93;98542.63;6140706;28;20238;-88
2022/07/18 09:38:04;;;;;;;2.13;1.10;;;;;;;29.79;23.82;98535.28;6148785;28;20235;-88
2022/07/18 09:41:11;;;;;;;3.17;1.40;;;;;;;30.18;24.26;98542.19;6156388;28;20644;-87
2022/07/18 09:44:17;;;;;;;1.90;1.10;;;;;;;30.68;23.26;98543.69;6140110;28;20267;-88
2022/07/18 09:47:20;;;;;;;1.17;0.80;;;;;;;30.76;24.54;98539.78;6142366;28;20244;-88
2022/07/18 09:50:25;;;;;;;3.28;0.90;;;;;;;30.35;20.83;98540.50;6140519;28;20273;-88
2022/07/18 09:53:40;;;;;;;2.45;1.00;;;;;;;30.46;22.46;98539.75;6145943;28;20229;-88
2022/07/18 09:56:42;;;;;;;5.07;1.02;;;;;;;30.91;20.53;98544.84;6172502;28;20768;-88
2022/07/18 09:59:44;;;;;;;3.80;1.23;;;;;;;31.00;19.90;98541.53;6135358;28;20227;-88
2022/07/18 10:02:50;;;;;;;3.33;0.98;;;;;;;31.35;19.87;98530.72;6140684;28;20722;-88
2022/07/18 10:05:55;;;;;;;1.67;0.80;;;;;;;31.38;20.38;98534.88;6156499;28;20226;-88
2022/07/18 10:08:57;;;;;;;1.40;0.93;;;;;;;31.53;20.91;98518.88;6140769;28;20242;-88
2022/07/18 10:12:00;;;;;;;1.27;0.98;;;;;;;32.15;20.55;98525.47;6156746;28;20293;-87
2022/07/18 10:15:04;;;;;;;2.03;0.80;;;;;;;32.69;19.55;98522.47;6139358;28;20721;-87
2022/07/18 10:18:09;;;;;;;1.77;1.00;;;;;;;32.81;18.74;98526.84;6140313;28;20271;-89
2022/07/18 10:21:12;;;;;;;2.35;0.90;;;;;;;32.45;19.47;98528.03;6156243;28;20265;-87
2022/07/18 10:24:17;;;;;;;4.35;1.20;;;;;;;31.93;19.30;98532.66;6154831;28;20340;-87
2022/07/18 10:27:20;;;;;;;1.33;0.90;;;;;;;32.02;19.16;98522.19;6140551;28;20348;-87
2022/07/18 10:30:31;;;;;;;2.35;0.95;;;;;;;31.86;18.76;98526.47;6167174;28;20352;-88
2022/07/18 10:33:38;;;;;;;1.45;1.02;;;;;;;31.71;19.18;98520.69;6155483;28;20223;-88
2022/07/18 10:36:49;;;;;;;2.13;1.23;;;;;;;30.99;20.02;98523.50;6137560;28;20710;-88
2022/07/18 10:39:51;;;;;;;3.15;1.17;;;;;;;30.88;19.63;98527.03;6142973;28;20230;-87
2022/07/18 10:43:38;;;;;;;3.72;0.98;;;;;;;30.74;21.19;98520.13;6148500;28;20226;-87
2022/07/18 10:47:20;;;;;;;6.40;2.20;;;;;;;31.08;19.71;98524.88;6139270;28;20596;-88
2022/07/18 10:50:22;;;;;;;2.00;1.08;;;;;;;31.38;19.61;98513.88;6155602;28;20226;-87
2022/07/18 10:53:53;;;;;;;4.65;1.17;;;;;;;32.07;19.58;98500.44;6154606;28;20233;-87
2022/07/18 10:56:55;;;;;;;4.72;1.02;;;;;;;32.60;18.71;98500.19;6144119;28;20674;-88
2022/07/18 11:00:10;;;;;;;0.93;0.70;;;;;;;32.59;18.25;98498.50;6143543;28;20315;-87
2022/07/18 11:03:13;;;;;;;3.22;1.10;;;;;;;33.07;18.69;98494.47;6138916;28;20524;-87
2022/07/18 11:06:16;;;;;;;1.88;0.90;;;;;;;32.61;18.06;98488.16;6154760;28;20229;-87
2022/07/18 11:09:36;;;;;;;1.75;1.02;;;;;;;33.21;18.58;98477.50;6154478;28;20210;-87
2022/07/18 11:12:38;;;;;;;2.05;0.90;;;;;;;33.94;18.21;98479.13;6132644;28;20806;-88
2022/07/18 11:16:05;;;;;;;2.70;1.10;;;;;;;34.58;16.57;98475.81;6138059;28;20336;-88
2022/07/18 11:19:10;;;;;;;2.38;1.10;;;;;;;33.63;17.02;98477.06;6139736;28;20241;-88
2022/07/18 11:22:20;;;;;;;3.05;1.50;;;;;;;32.18;17.46;98473.13;6139120;28;20248;-88
2022/07/18 11:25:29;;;;;;;1.13;1.02;;;;;;;31.75;19.53;98472.72;6138834;28;20222;-88
2022/07/18 11:29:05;;;;;;;1.45;1.20;;;;;;;32.56;18.19;98468.91;6160360;28;20300;-88
2022/07/18 11:32:20;;;;;;;1.95;1.08;;;;;;;33.18;18.01;98456.09;6149027;28;20321;-88
2022/07/18 11:35:23;;;;;;;2.83;1.02;;;;;;;32.74;18.41;98454.25;6154858;28;20778;-88
2022/07/18 11:38:25;;;;;;;1.90;1.08;;;;;;;32.68;18.40;98461.50;6138570;28;20248;-87
2022/07/18 11:41:27;;;;;;;2.45;1.30;;;;;;;33.24;18.13;98454.31;6138945;28;20229;-87
2022/07/18 11:44:30;;;;;;;3.60;1.55;;;;;;;32.54;17.78;98454.69;6138634;28;20230;-88
2022/07/18 11:47:47;;;;;;;4.30;1.30;;;;;;;32.49;16.84;98451.84;6153669;28;20234;-88
2022/07/18 11:50:49;;;;;;;2.67;1.23;;;;;;;32.93;17.60;98447.47;6138393;28;20619;-88
2022/07/18 11:53:53;;;;;;;2.28;0.90;;;;;;;33.67;17.82;98443.44;6138425;28;20242;-88
2022/07/18 11:56:56;;;;;;;1.17;1.02;;;;;;;34.32;17.40;98439.09;6155393;28;20623;-88
2022/07/18 12:00:00;;;;;;;4.05;1.50;;;;;;;34.83;16.87;98429.47;6145837;28;20270;-88
2022/07/18 12:03:17;;;;;;;4.45;1.52;;;;;;;35.33;17.34;98429.06;6145404;28;20227;-87
2022/07/18 12:06:22;;;;;;;2.47;1.10;;;;;;;34.70;16.84;98427.13;6151698;28;20666;-87
2022/07/18 12:09:27;;;;;;;1.83;1.13;;;;;;;34.78;16.48;98422.03;6142631;28;20229;-88
2022/07/18 12:12:37;;;;;;;1.05;0.95;;;;;;;34.58;16.70;98430.03;6134958;28;20370;-88
2022/07/18 12:15:39;;;;;;;1.48;0.93;;;;;;;34.65;16.61;98425.16;6140935;28;20324;-88
2022/07/18 12:18:52;;;;;;;2.17;1.27;;;;;;;34.63;17.54;98421.88;6158101;28;20316;-87
2022/07/18 12:22:05;;;;;;;3.45;1.10;;;;;;;35.34;16.46;98419.72;6143002;28;20273;-88
2022/07/18 12:25:08;;;;;;;1.45;1.02;;;;;;;35.52;16.42;98412.97;6158424;28;20364;-87
2022/07/18 12:28:20;;;;;;;3.88;1.20;;;;;;;36.15;15.66;98411.88;6141766;28;20233;-88
2022/07/18 12:31:43;;;;;;;1.75;1.00;;;;;;;36.89;15.05;98407.94;6160195;28;20257;-87
2022/07/18 12:35:02;;;;;;;2.05;1.08;;;;;;;37.18;14.83;98405.47;6152407;28;20235;-87
2022/07/18 12:38:11;;;;;;;1.83;1.20;;;;;;;37.37;14.91;98397.44;6157948;28;20230;-88
2022/07/18 12:41:14;;;;;;;3.65;1.08;;;;;;;37.20;14.23;98397.75;6157979;28;20234;-88
2022/07/18 12:44:16;;;;;;;1.63;1.20;;;;;;;36.97;14.71;98394.44;6135285;28;20289;-88
2022/07/18 12:47:18;;;;;;;2.92;1.20;;;;;;;36.92;15.20;98399.13;6139091;28;20313;-88
2022/07/18 12:50:20;;;;;;;2.85;1.00;;;;;;;37.22;15.06;98384.53;6157917;28;20269;-88
2022/07/18 12:53:22;;;;;;;1.27;1.17;;;;;;;35.99;15.28;98382.72;6143033;28;20226;-87
2022/07/18 12:56:24;;;;;;;1.13;0.82;;;;;;;35.54;15.57;98385.25;6157937;28;20237;-87
2022/07/18 12:59:26;;;;;;;1.33;1.00;;;;;;;35.81;15.52;98385.94;6157189;28;20237;-88
2022/07/18 13:02:28;;;;;;;1.15;1.05;;;;;;;35.57;15.24;98387.44;6150256;28;20223;-88
2022/07/18 13:05:31;;;;;;;1.40;0.90;;;;;;;35.61;15.89;98383.91;6154473;28;20230;-87
2022/07/18 13:08:33;;;;;;;1.52;1.00;;;;;;;35.22;16.14;98390.81;6157355;28;20230;-88
2022/07/18 13:11:35;;;;;;;3.15;1.00;;;;;;;34.28;16.62;98391.34;6149261;28;20710;-87
2022/07/18 13:14:38;;;;;;;1.80;1.10;;;;;;;34.07;16.60;98384.78;6135587;28;20234;-87
2022/07/18 13:17:40;;;;;;;2.88;1.00;;;;;;;34.98;15.85;98379.38;6156265;28;20847;-87
2022/07/18 13:20:42;;;;;;;2.67;1.30;;;;;;;35.16;16.13;98366.03;6173683;28;20612;-88
2022/07/18 13:23:44;;;;;;;2.60;1.25;;;;;;;35.56;15.18;98366.56;6156952;28;20717;-87
2022/07/18 13:26:46;;;;;;;1.73;1.10;;;;;;;35.90;15.19;98365.09;6158133;28;20309;-87
2022/07/18 13:29:48;;;;;;;1.52;1.00;;;;;;;36.73;14.88;98363.09;6147427;28;20283;-87
2022/07/18 13:32:50;;;;;;;1.05;0.95;;;;;;;36.49;14.73;98353.69;6181966;28;20774;-88
2022/07/18 13:35:52;;;;;;;2.22;1.13;;;;;;;36.02;14.79;98351.13;6160880;28;20726;-88
2022/07/18 13:38:55;;;;;;;1.10;1.00;;;;;;;36.44;15.43;98357.25;6147485;28;20732;-87
2022/07/18 13:41:57;;;;;;;0.93;0.82;;;;;;;36.86;14.88;98351.50;6173555;28;20269;-87
2022/07/18 13:44:59;;;;;;;1.60;1.00;;;;;;;36.92;14.18;98346.84;6144278;28;20764;-86
2022/07/18 13:48:02;;;;;;;1.88;1.13;;;;;;;36.92;14.20;98347.66;6159872;28;20225;-87
2022/07/18 13:51:05;;;;;;;2.85;0.98;;;;;;;37.59;13.02;98348.34;6159453;28;20558;-87
2022/07/18 13:54:07;;;;;;;2.58;0.80;;;;;;;38.12;12.47;98345.94;6158927;28;20218;-87
2022/07/18 13:57:09;;;;;;;1.08;0.73;;;;;;;38.39;12.68;98344.34;6151468;28;20230;-88
2022/07/18 14:00:12;;;;;;;1.02;0.82;;;;;;;38.38;12.66;98342.72;6151747;28;20600;-87
2022/07/18 14:03:14;;;;;;;1.02;0.80;;;;;;;38.54;13.44;98345.38;6143207;28;20213;-87
2022/07/18 14:06:17;;;;;;;3.33;0.98;;;;;;;38.90;13.37;98343.13;6141499;28;20225;-87
2022/07/18 14:09:19;;;;;;;2.90;0.90;;;;;;;39.61;12.30;98346.00;6155573;28;20249;-87
2022/07/18 14:12:21;;;;;;;0.88;0.70;;;;;;;40.26;10.91;98346.22;6155112;28;20245;-87
2022/07/18 14:15:24;;;;;;;2.05;0.80;;;;;;;41.12;9.49;98338.50;6156366;28;20226;-87
2022/07/18 14:18:26;;;;;;;1.33;0.90;;;;;;;42.77;9.24;98330.75;6132394;28;20803;-87
2022/07/18 14:21:28;;;;;;;2.50;0.95;;;;;;;44.75;8.30;98329.38;6128746;28;20222;-87
2022/07/18 14:24:31;;;;;;;1.25;0.90;;;;;;;46.05;7.35;98334.41;6149660;28;20225;-87
2022/07/18 14:27:34;;;;;;;1.58;0.98;;;;;;;46.44;7.26;98327.56;6155208;28;20226;-88
2022/07/18 14:30:36;;;;;;;1.35;0.90;;;;;;;46.21;7.56;98324.28;6140752;28;20641;-87
2022/07/18 14:33:38;;;;;;;1.90;1.00;;;;;;;46.49;7.10;98313.38;6156926;28;20316;-87